Time;durP1;ratioP1;P1;durP2;ratioP2;P2;SDS_P1;SDS_P2;PMS_P1;PMS_P2;Temp;Humidity;BMP_temperature;BMP_pressure;BME280_temperature;BME280_humidity;BME280_pressure;Samples;Min_cycle;Max_cycle;Signal;HPM_P1;HPM_P2
2022/03/30 00:00:24;;;;;;;28.30;14.60;;;8.10;73.00;;;;;;5077586;28;20089;-76
2022/03/30 00:02:49;;;;;;;31.33;14.90;;;8.10;73.20;;;;;;5077908;28;20135;-76
2022/03/30 00:05:15;;;;;;;29.60;15.40;;;8.10;73.70;;;;;;5077591;28;20039;-76
2022/03/30 00:07:41;;;;;;;30.80;15.50;;;8.10;74.30;;;;;;5094785;28;20039;-76
2022/03/30 00:10:07;;;;;;;30.50;15.03;;;8.10;73.90;;;;;;5095551;28;20118;-76
2022/03/30 00:12:34;;;;;;;29.80;14.70;;;8.10;74.80;;;;;;5077368;28;20028;-76
2022/03/30 00:14:59;;;;;;;27.67;14.57;;;8.10;74.40;;;;;;5077394;28;20492;-76
2022/03/30 00:17:26;;;;;;;28.40;14.07;;;8.10;74.60;;;;;;5077267;28;20183;-76
2022/03/30 00:19:52;;;;;;;26.33;14.27;;;8.10;74.80;;;;;;5077149;28;20041;-76
2022/03/30 00:22:17;;;;;;;27.80;13.87;;;8.10;74.70;;;;;;5060324;28;20380;-77
2022/03/30 00:24:44;;;;;;;32.67;14.70;;;8.10;74.60;;;;;;5077034;28;20028;-76
2022/03/30 00:27:10;;;;;;;29.10;14.50;;;8.10;74.80;;;;;;5060267;28;20481;-77
2022/03/30 00:29:36;;;;;;;24.67;13.47;;;8.10;74.80;;;;;;5095207;28;20477;-76
2022/03/30 00:32:02;;;;;;;27.50;14.43;;;8.00;75.20;;;;;;5076858;28;20057;-76
2022/03/30 00:34:27;;;;;;;28.17;14.60;;;8.00;75.50;;;;;;5077256;28;20055;-76
2022/03/30 00:36:53;;;;;;;31.47;15.23;;;8.00;75.50;;;;;;5076937;28;20028;-76
2022/03/30 00:39:18;;;;;;;30.23;14.90;;;8.00;75.10;;;;;;5076720;28;20115;-77
2022/03/30 00:41:45;;;;;;;35.73;14.00;;;8.00;74.90;;;;;;5076579;28;20027;-76
2022/03/30 00:44:12;;;;;;;30.13;14.30;;;7.90;75.50;;;;;;5076663;28;20034;-76
2022/03/30 00:46:39;;;;;;;27.50;12.70;;;7.90;75.50;;;;;;5059626;28;20465;-77
2022/03/30 00:49:05;;;;;;;22.00;12.43;;;7.90;75.20;;;;;;5094509;28;20031;-76
2022/03/30 00:51:31;;;;;;;27.87;13.47;;;7.80;75.40;;;;;;5076175;28;20032;-76
2022/03/30 00:53:57;;;;;;;25.27;13.73;;;7.80;75.80;;;;;;5094351;28;20035;-76
2022/03/30 00:56:24;;;;;;;28.97;14.00;;;7.80;75.90;;;;;;5076454;28;20070;-76
2022/03/30 00:58:51;;;;;;;29.27;14.00;;;7.90;76.00;;;;;;5094687;28;20024;-76
2022/03/30 01:01:19;;;;;;;28.30;13.20;;;7.80;75.90;;;;;;5094607;28;20035;-76
2022/03/30 01:03:45;;;;;;;28.77;11.57;;;7.80;75.90;;;;;;5094371;28;20483;-76
2022/03/30 01:06:10;;;;;;;30.27;14.50;;;7.60;75.80;;;;;;5076066;28;20069;-76
2022/03/30 01:08:36;;;;;;;31.43;13.93;;;7.70;76.20;;;;;;5094540;28;20499;-76
2022/03/30 01:11:02;;;;;;;28.53;13.60;;;7.70;75.70;;;;;;5076218;28;20028;-76
2022/03/30 01:13:27;;;;;;;30.20;14.03;;;7.60;76.30;;;;;;5076248;28;20028;-76
2022/03/30 01:15:53;;;;;;;33.27;16.07;;;7.60;76.60;;;;;;5076091;28;20024;-76
2022/03/30 01:18:19;;;;;;;28.57;14.13;;;7.50;76.60;;;;;;5076307;28;20036;-76
2022/03/30 01:20:51;;;;;;;30.10;14.83;;;7.50;76.70;;;;;;5042859;28;20111;-76
2022/03/30 01:23:17;;;;;;;30.03;14.07;;;7.50;76.50;;;;;;5059564;28;20026;-76
2022/03/30 01:25:43;;;;;;;27.97;13.50;;;7.50;76.80;;;;;;5094166;28;20506;-76
2022/03/30 01:28:08;;;;;;;24.80;12.40;;;7.40;76.60;;;;;;5075711;28;20031;-76
2022/03/30 01:33:20;;;;;;;27.70;12.30;;;7.30;76.80;;;;;;5094138;28;20100;-76
2022/03/30 01:35:46;;;;;;;29.10;13.67;;;7.20;76.60;;;;;;5093964;28;20013;-76
2022/03/30 01:38:11;;;;;;;26.20;12.27;;;7.30;76.50;;;;;;5075737;28;20093;-76
2022/03/30 01:40:38;;;;;;;24.50;12.30;;;7.20;76.50;;;;;;5059170;28;20038;-76
2022/03/30 01:43:04;;;;;;;29.47;13.30;;;7.20;76.80;;;;;;5093785;28;20027;-77
2022/03/30 01:45:30;;;;;;;25.63;12.83;;;7.10;76.80;;;;;;5093989;28;20397;-76
2022/03/30 01:47:59;;;;;;;28.00;13.50;;;7.10;76.70;;;;;;5093571;28;20051;-76
2022/03/30 01:50:26;;;;;;;31.87;13.70;;;7.10;77.00;;;;;;5075804;28;20024;-76
2022/03/30 01:52:53;;;;;;;25.10;13.27;;;7.10;77.00;;;;;;5075563;28;20039;-76
2022/03/30 01:55:19;;;;;;;29.50;12.80;;;7.00;76.90;;;;;;5093618;28;20081;-77
2022/03/30 01:57:45;;;;;;;28.27;13.63;;;7.00;77.00;;;;;;5075685;28;20115;-76
2022/03/30 02:00:14;;;;;;;27.53;12.07;;;7.00;77.80;;;;;;5093448;28;20032;-76
2022/03/30 02:02:40;;;;;;;26.07;11.43;;;7.00;77.00;;;;;;5075752;28;20028;-76
2022/03/30 02:05:08;;;;;;;22.57;12.17;;;6.90;77.20;;;;;;5093688;28;20020;-76
2022/03/30 02:07:40;;;;;;;25.30;11.50;;;6.90;77.20;;;;;;5093747;28;20048;-76
2022/03/30 02:10:07;;;;;;;27.47;12.57;;;6.90;77.10;;;;;;5076568;28;20028;-77
2022/03/30 02:12:33;;;;;;;27.07;12.67;;;6.90;77.10;;;;;;5093325;28;20048;-76
2022/03/30 02:14:59;;;;;;;28.73;13.33;;;6.80;77.30;;;;;;5058416;28;20048;-76
2022/03/30 02:17:26;;;;;;;27.97;13.70;;;6.80;77.30;;;;;;5075500;28;20070;-76
2022/03/30 02:19:53;;;;;;;26.30;12.37;;;6.70;77.30;;;;;;5093340;28;20089;-76
2022/03/30 02:22:19;;;;;;;24.40;12.03;;;6.70;77.20;;;;;;5093401;28;20024;-76
2022/03/30 02:24:44;;;;;;;27.13;12.67;;;6.70;77.20;;;;;;5075692;28;20032;-76
2022/03/30 02:27:10;;;;;;;26.07;11.77;;;6.60;77.30;;;;;;5093258;28;20024;-76
2022/03/30 02:29:36;;;;;;;23.20;11.47;;;6.50;77.50;;;;;;5093464;28;20452;-76
2022/03/30 02:32:02;;;;;;;25.97;12.00;;;6.50;77.80;;;;;;5060894;28;20104;-75
2022/03/30 02:34:28;;;;;;;29.70;12.33;;;6.50;77.80;;;;;;5079496;28;20035;-76
2022/03/30 02:36:54;;;;;;;25.43;12.30;;;6.50;77.80;;;;;;5078962;28;20092;-76
2022/03/30 02:39:19;;;;;;;26.40;12.03;;;6.40;78.00;;;;;;5079126;28;20035;-76
2022/03/30 02:41:46;;;;;;;29.47;12.23;;;6.40;78.20;;;;;;5079161;28;20381;-76
2022/03/30 02:44:13;;;;;;;23.33;12.23;;;6.40;78.50;;;;;;5079263;28;20040;-76
2022/03/30 02:46:39;;;;;;;23.87;11.87;;;6.30;78.90;;;;;;5078597;28;20040;-76
2022/03/30 02:49:05;;;;;;;27.07;12.93;;;6.30;78.80;;;;;;5097075;28;20036;-76
2022/03/30 02:51:31;;;;;;;27.30;12.73;;;6.30;79.10;;;;;;5097119;28;20036;-76
2022/03/30 02:53:57;;;;;;;26.27;11.77;;;6.30;79.00;;;;;;5096975;28;20059;-76
2022/03/30 02:56:23;;;;;;;24.93;11.93;;;6.30;79.00;;;;;;5079035;28;20052;-76
2022/03/30 02:58:49;;;;;;;20.50;11.23;;;6.20;78.90;;;;;;5097086;28;20028;-76
2022/03/30 03:01:14;;;;;;;33.07;11.83;;;6.20;78.90;;;;;;5078508;28;20043;-76
2022/03/30 03:03:40;;;;;;;26.40;12.13;;;6.20;79.10;;;;;;5078994;28;20027;-76
2022/03/30 03:06:06;;;;;;;25.90;12.07;;;6.10;79.40;;;;;;5079021;28;20387;-76
2022/03/30 03:08:32;;;;;;;26.93;12.17;;;6.10;79.50;;;;;;5078862;28;20028;-76
2022/03/30 03:10:58;;;;;;;26.63;12.60;;;6.10;79.60;;;;;;5096717;28;20397;-76
2022/03/30 03:13:25;;;;;;;25.17;11.97;;;6.00;80.00;;;;;;5096532;28;20072;-76
2022/03/30 03:15:51;;;;;;;28.13;12.17;;;6.00;79.80;;;;;;5078729;28;20035;-76
2022/03/30 03:18:17;;;;;;;31.57;14.00;;;6.00;80.20;;;;;;5078750;28;20491;-76
2022/03/30 03:20:44;;;;;;;30.00;12.97;;;5.90;80.30;;;;;;5078347;28;20047;-76
2022/03/30 03:23:11;;;;;;;29.27;12.27;;;5.80;80.30;;;;;;5078121;28;20383;-76
2022/03/30 03:25:39;;;;;;;26.00;12.30;;;5.90;80.70;;;;;;5096371;28;20464;-76
2022/03/30 03:28:05;;;;;;;30.77;12.20;;;5.80;80.60;;;;;;5096261;28;20026;-77
2022/03/30 03:30:31;;;;;;;24.23;12.47;;;5.70;80.80;;;;;;5078112;28;20101;-76
2022/03/30 03:32:57;;;;;;;27.50;12.53;;;5.70;80.90;;;;;;5078235;28;20028;-76
2022/03/30 03:35:23;;;;;;;25.00;12.07;;;5.60;81.10;;;;;;5096248;28;20051;-76
2022/03/30 03:37:49;;;;;;;24.10;11.47;;;5.60;80.90;;;;;;5096383;28;20067;-77
2022/03/30 03:40:17;;;;;;;26.10;12.43;;;5.60;81.10;;;;;;5078212;28;20028;-76
2022/03/30 03:42:43;;;;;;;24.80;11.30;;;5.50;81.00;;;;;;5094997;28;20021;-76
2022/03/30 03:45:09;;;;;;;24.80;12.60;;;5.50;81.10;;;;;;5096069;28;20149;-76
2022/03/30 03:47:35;;;;;;;30.33;12.93;;;5.40;81.70;;;;;;5077479;28;20100;-76
2022/03/30 03:50:02;;;;;;;26.23;12.37;;;5.40;82.20;;;;;;5078200;28;20044;-77
2022/03/30 03:52:28;;;;;;;25.70;12.13;;;5.40;82.20;;;;;;5078029;28;20023;-76
2022/03/30 03:54:53;;;;;;;26.80;12.73;;;5.40;82.40;;;;;;5061040;28;20024;-76
2022/03/30 03:57:19;;;;;;;27.97;12.53;;;5.30;82.50;;;;;;5096110;28;20025;-76
2022/03/30 03:59:45;;;;;;;27.70;12.63;;;5.30;83.00;;;;;;5044414;28;20115;-76
2022/03/30 04:02:10;;;;;;;27.73;12.27;;;5.20;82.50;;;;;;5060590;28;20039;-76
2022/03/30 04:04:39;;;;;;;29.87;12.13;;;5.20;82.60;;;;;;5077541;28;20031;-76
2022/03/30 04:07:06;;;;;;;25.80;12.47;;;5.20;82.50;;;;;;5070498;28;20465;-76
2022/03/30 04:09:32;;;;;;;27.03;12.33;;;5.20;82.60;;;;;;5063135;28;20115;-76
2022/03/30 04:11:58;;;;;;;24.40;12.37;;;5.10;82.40;;;;;;5057970;28;20101;-76
2022/03/30 04:14:23;;;;;;;28.10;12.10;;;5.10;82.50;;;;;;5087815;28;20055;-76
2022/03/30 04:16:49;;;;;;;22.70;11.97;;;5.10;82.60;;;;;;5070351;28;20024;-76
2022/03/30 04:19:15;;;;;;;26.13;12.57;;;5.10;82.80;;;;;;5088330;28;20028;-76
2022/03/30 04:21:42;;;;;;;28.67;12.17;;;5.10;82.70;;;;;;5094615;28;20070;-76
2022/03/30 04:24:08;;;;;;;26.27;12.20;;;4.90;82.70;;;;;;5092867;28;20020;-76
2022/03/30 04:26:34;;;;;;;25.67;11.73;;;5.00;82.80;;;;;;5076697;28;20020;-76
2022/03/30 04:28:59;;;;;;;29.50;11.20;;;5.00;83.00;;;;;;5073623;28;20752;-76
2022/03/30 04:31:25;;;;;;;31.90;12.07;;;5.10;83.20;;;;;;5075051;28;20487;-76
2022/03/30 04:33:53;;;;;;;27.23;12.70;;;5.00;83.20;;;;;;5056831;28;20086;-76
2022/03/30 04:36:19;;;;;;;27.30;12.37;;;5.00;83.40;;;;;;5040621;28;20473;-76
2022/03/30 04:38:45;;;;;;;27.23;11.73;;;5.00;83.40;;;;;;5039921;28;20058;-76
2022/03/30 04:41:11;;;;;;;24.80;12.50;;;5.00;83.30;;;;;;5074363;28;20099;-76
2022/03/30 04:43:37;;;;;;;26.80;13.30;;;4.90;83.60;;;;;;5057258;28;20024;-76
2022/03/30 04:46:03;;;;;;;24.90;12.47;;;4.90;84.00;;;;;;5074684;28;20081;-76
2022/03/30 04:48:28;;;;;;;28.33;13.00;;;4.90;84.10;;;;;;5056781;28;20044;-76
2022/03/30 04:50:54;;;;;;;37.57;13.77;;;4.90;84.20;;;;;;5056371;28;20020;-78
2022/03/30 04:53:20;;;;;;;27.03;12.30;;;4.90;84.50;;;;;;5056131;28;20177;-78
2022/03/30 04:55:45;;;;;;;29.70;12.50;;;4.90;85.00;;;;;;5056004;28;20067;-78
2022/03/30 04:58:11;;;;;;;25.37;11.47;;;4.90;84.60;;;;;;5056230;28;20040;-78
2022/03/30 05:00:37;;;;;;;27.67;10.87;;;4.90;84.60;;;;;;5074011;28;20503;-78
2022/03/30 05:03:03;;;;;;;24.73;11.97;;;4.90;84.80;;;;;;5055968;28;20028;-78
2022/03/30 05:05:28;;;;;;;29.27;12.53;;;4.80;84.90;;;;;;5056097;28;20435;-78
2022/03/30 05:07:57;;;;;;;26.47;12.77;;;4.80;85.00;;;;;;5055875;28;20021;-78
2022/03/30 05:10:23;;;;;;;29.90;13.00;;;4.80;85.20;;;;;;5073858;28;20052;-78
2022/03/30 05:12:48;;;;;;;24.80;12.17;;;4.80;85.30;;;;;;5055783;28;20527;-78
2022/03/30 05:15:14;;;;;;;29.60;13.43;;;4.80;85.40;;;;;;5073700;28;20028;-78
2022/03/30 05:17:43;;;;;;;26.97;12.80;;;4.80;85.80;;;;;;5073765;28;20043;-78
2022/03/30 05:20:10;;;;;;;31.13;13.30;;;4.70;85.70;;;;;;5055496;28;20378;-78
2022/03/30 05:22:36;;;;;;;26.30;13.23;;;4.80;85.90;;;;;;5065689;28;20136;-78
2022/03/30 05:25:03;;;;;;;27.63;13.03;;;4.80;85.90;;;;;;5042408;28;20523;-78
2022/03/30 05:27:28;;;;;;;30.33;13.20;;;4.80;86.10;;;;;;5075505;28;20019;-78
2022/03/30 05:29:54;;;;;;;28.17;13.07;;;4.80;86.10;;;;;;5075709;28;20385;-78
2022/03/30 05:32:20;;;;;;;28.40;13.13;;;4.80;86.20;;;;;;5093864;28;20032;-78
2022/03/30 05:34:45;;;;;;;28.43;12.97;;;4.80;86.30;;;;;;5082844;28;20103;-78
2022/03/30 05:37:11;;;;;;;28.43;12.73;;;4.80;86.40;;;;;;5075448;28;20023;-78
2022/03/30 05:39:41;;;;;;;32.83;13.07;;;4.80;86.50;;;;;;5093743;28;20023;-78
2022/03/30 05:42:08;;;;;;;33.60;13.00;;;4.80;86.50;;;;;;5093707;28;20111;-78
2022/03/30 05:44:34;;;;;;;28.77;13.63;;;4.80;86.60;;;;;;5059004;28;20108;-79
2022/03/30 05:47:00;;;;;;;30.77;13.37;;;4.70;86.70;;;;;;5062401;28;20056;-78
2022/03/30 05:49:26;;;;;;;29.10;14.90;;;4.70;86.70;;;;;;5055449;28;20476;-78
2022/03/30 05:51:51;;;;;;;31.63;14.10;;;4.70;86.90;;;;;;5050733;28;20033;-79
2022/03/30 05:54:17;;;;;;;31.47;14.13;;;4.70;87.00;;;;;;5071687;28;20082;-79
2022/03/30 05:57:01;;;;;;;39.13;16.70;;;4.70;87.20;;;;;;5077353;28;20480;-78
2022/03/30 05:59:38;;;;;;;31.20;13.27;;;4.70;87.30;;;;;;5066535;28;20423;-79
2022/03/30 06:02:05;;;;;;;33.90;13.93;;;4.70;87.80;;;;;;5073263;28;20381;-79
2022/03/30 06:04:32;;;;;;;28.53;13.33;;;4.70;87.20;;;;;;5067440;28;20086;-79
2022/03/30 06:06:58;;;;;;;29.37;13.90;;;4.70;87.30;;;;;;5072384;28;20481;-79
2022/03/30 06:09:24;;;;;;;27.93;13.20;;;4.60;87.40;;;;;;5071832;28;20104;-79
2022/03/30 06:11:50;;;;;;;30.67;14.90;;;4.70;87.60;;;;;;5071748;28;20024;-79
2022/03/30 06:14:15;;;;;;;24.53;13.33;;;4.70;87.70;;;;;;5073008;28;20043;-79
2022/03/30 06:16:45;;;;;;;26.10;12.93;;;4.70;87.90;;;;;;5072763;28;20239;-79
2022/03/30 06:19:12;;;;;;;31.20;13.13;;;4.80;88.20;;;;;;5063397;28;20040;-80
2022/03/30 06:21:38;;;;;;;25.30;13.17;;;4.80;88.30;;;;;;5038966;28;20033;-80
2022/03/30 06:24:04;;;;;;;30.30;12.57;;;4.80;88.30;;;;;;5085013;28;20377;-79
2022/03/30 06:26:30;;;;;;;25.27;12.53;;;4.80;88.40;;;;;;5058227;28;20108;-79
2022/03/30 06:28:56;;;;;;;31.23;13.60;;;4.80;88.40;;;;;;5054738;28;20483;-79
2022/03/30 06:31:22;;;;;;;28.80;12.73;;;4.80;88.40;;;;;;5072552;28;20154;-80
2022/03/30 06:33:48;;;;;;;31.30;13.60;;;4.80;88.40;;;;;;5072818;28;20025;-79
2022/03/30 06:36:15;;;;;;;26.30;13.27;;;5.00;88.50;;;;;;5071492;28;20028;-79
2022/03/30 06:38:44;;;;;;;30.33;12.90;;;4.90;88.80;;;;;;5054921;28;20029;-78
2022/03/30 06:41:12;;;;;;;33.70;13.13;;;5.00;89.10;;;;;;5060578;28;20212;-78
2022/03/30 06:43:42;;;;;;;36.23;14.17;;;5.00;89.00;;;;;;5072695;28;20028;-78
2022/03/30 06:46:09;;;;;;;30.50;14.03;;;5.10;89.20;;;;;;5054740;28;20024;-78
2022/03/30 06:48:35;;;;;;;26.77;14.17;;;5.10;89.20;;;;;;5072575;28;20032;-80
2022/03/30 06:51:00;;;;;;;30.07;12.80;;;5.20;89.20;;;;;;5088040;28;20032;-79
2022/03/30 06:53:26;;;;;;;28.23;12.63;;;5.20;89.30;;;;;;5071540;28;20025;-78
2022/03/30 06:55:52;;;;;;;25.87;11.97;;;5.30;89.30;;;;;;5057369;28;20036;-78
2022/03/30 06:58:17;;;;;;;35.63;14.53;;;5.40;89.40;;;;;;5092804;28;20055;-78
2022/03/30 07:00:43;;;;;;;31.50;14.10;;;5.50;89.40;;;;;;5092793;28;20064;-78
2022/03/30 07:03:09;;;;;;;34.60;13.33;;;5.60;89.50;;;;;;5074744;28;20012;-78
2022/03/30 07:05:35;;;;;;;28.10;13.67;;;5.70;89.40;;;;;;5093062;28;20031;-79
2022/03/30 07:10:45;;;;;;;28.60;11.35;;;6.00;89.60;;;;;;5093082;28;20043;-78
2022/03/30 07:13:11;;;;;;;32.93;12.50;;;6.00;89.60;;;;;;5074683;28;20036;-79
2022/03/30 07:15:38;;;;;;;34.50;12.30;;;6.20;89.70;;;;;;5092758;28;20036;-78
2022/03/30 07:18:06;;;;;;;29.03;11.97;;;6.30;89.50;;;;;;5095070;28;20036;-78
2022/03/30 07:20:32;;;;;;;28.23;12.47;;;6.40;89.50;;;;;;5078079;28;20032;-79
2022/03/30 07:22:58;;;;;;;27.93;12.90;;;6.50;89.40;;;;;;5061659;28;20021;-79
2022/03/30 07:25:24;;;;;;;20.53;9.77;;;6.70;89.30;;;;;;5096325;28;20035;-79
2022/03/30 07:27:53;;;;;;;30.47;12.70;;;6.70;89.00;;;;;;5077989;28;20031;-80
2022/03/30 07:30:20;;;;;;;25.50;11.80;;;6.90;89.50;;;;;;5078059;28;20464;-79
2022/03/30 07:32:47;;;;;;;22.00;10.77;;;7.00;88.70;;;;;;5096202;28;20035;-79
2022/03/30 07:35:16;;;;;;;19.93;10.37;;;7.10;88.70;;;;;;5057621;28;20036;-77
2022/03/30 07:37:43;;;;;;;21.97;11.13;;;7.30;88.50;;;;;;5075742;28;20021;-79
2022/03/30 07:40:12;;;;;;;25.33;10.70;;;7.40;88.20;;;;;;5075698;28;20495;-78
2022/03/30 07:42:38;;;;;;;27.07;12.53;;;7.40;87.80;;;;;;5075721;28;20488;-78
2022/03/30 07:45:05;;;;;;;22.50;9.83;;;7.50;87.50;;;;;;5084339;28;20032;-78
2022/03/30 07:47:31;;;;;;;23.63;12.13;;;7.50;87.30;;;;;;5095610;28;20511;-78
2022/03/30 07:49:57;;;;;;;22.67;10.77;;;7.60;87.10;;;;;;5095780;28;20040;-78
2022/03/30 07:52:23;;;;;;;19.50;10.13;;;7.70;87.00;;;;;;5095608;28;20082;-78
2022/03/30 07:54:49;;;;;;;22.47;10.23;;;7.80;87.10;;;;;;5077446;28;20431;-78
2022/03/30 07:57:15;;;;;;;27.00;9.40;;;7.70;88.70;;;;;;5077505;28;20024;-78
2022/03/30 07:59:42;;;;;;;22.23;10.13;;;7.80;88.40;;;;;;5082414;28;20020;-78
2022/03/30 08:02:08;;;;;;;21.80;10.13;;;7.90;87.80;;;;;;5075175;28;20393;-78
2022/03/30 08:04:34;;;;;;;21.07;9.93;;;8.00;87.30;;;;;;5075126;28;20028;-78
2022/03/30 08:06:59;;;;;;;28.20;10.83;;;8.10;87.60;;;;;;5057251;28;20059;-79
2022/03/30 08:09:25;;;;;;;20.97;10.40;;;8.30;86.30;;;;;;5075216;28;20060;-78
2022/03/30 08:11:52;;;;;;;26.00;11.63;;;8.20;86.10;;;;;;5057434;28;20033;-79
2022/03/30 08:14:18;;;;;;;23.53;10.47;;;8.20;85.80;;;;;;5057614;28;20058;-79
2022/03/30 08:16:44;;;;;;;26.60;11.70;;;8.30;85.70;;;;;;5057018;28;20029;-78
2022/03/30 08:19:10;;;;;;;21.57;11.57;;;8.40;85.70;;;;;;5057080;28;20028;-79
2022/03/30 08:24:21;;;;;;;28.55;10.52;;;8.40;85.40;;;;;;5060152;28;20631;-77
2022/03/30 08:26:47;;;;;;;24.43;10.27;;;8.50;85.10;;;;;;5057204;28;20085;-77
2022/03/30 08:29:13;;;;;;;19.07;9.87;;;8.60;84.70;;;;;;5056483;28;20107;-78
2022/03/30 08:31:38;;;;;;;26.33;10.90;;;8.50;84.60;;;;;;5074689;28;20039;-78
2022/03/30 08:34:04;;;;;;;19.17;10.03;;;8.70;84.50;;;;;;5040043;28;20469;-78
2022/03/30 08:36:30;;;;;;;26.13;10.73;;;8.70;84.50;;;;;;5074589;28;20034;-78
2022/03/30 08:38:57;;;;;;;20.73;10.23;;;8.80;84.50;;;;;;5023670;28;20400;-77
2022/03/30 08:41:23;;;;;;;20.53;9.80;;;8.90;84.50;;;;;;5074497;28;20037;-79
2022/03/30 08:43:50;;;;;;;23.77;11.20;;;9.10;84.20;;;;;;5074863;28;20068;-80
2022/03/30 08:46:15;;;;;;;21.27;10.67;;;9.00;83.60;;;;;;5056596;28;20064;-79
2022/03/30 08:48:42;;;;;;;19.67;10.23;;;9.20;84.00;;;;;;5074215;28;20044;-80
2022/03/30 08:51:10;;;;;;;21.93;9.93;;;9.30;83.20;;;;;;5056649;28;20025;-79
2022/03/30 08:53:36;;;;;;;19.93;9.73;;;9.50;83.20;;;;;;5040005;28;20024;-79
2022/03/30 08:56:02;;;;;;;21.77;9.63;;;9.60;82.50;;;;;;5074318;28;20029;-79
2022/03/30 08:58:27;;;;;;;19.90;9.13;;;9.70;81.90;;;;;;5074439;28;20024;-84
2022/03/30 09:00:54;;;;;;;16.07;7.30;;;9.70;80.30;;;;;;5073959;28;20040;-80
2022/03/30 09:03:20;;;;;;;15.43;8.07;;;9.80;79.20;;;;;;5056121;28;20036;-79
2022/03/30 09:05:46;;;;;;;18.47;8.47;;;9.70;78.40;;;;;;5039489;28;20032;-77
2022/03/30 09:08:20;;;;;;;14.83;7.63;;;9.70;78.60;;;;;;5073918;28;20426;-79
2022/03/30 09:10:48;;;;;;;19.80;10.47;;;9.70;78.10;;;;;;5073964;28;20044;-78
2022/03/30 09:13:15;;;;;;;23.43;10.20;;;9.80;78.20;;;;;;5073701;28;20028;-77
2022/03/30 09:15:41;;;;;;;17.67;8.90;;;9.80;78.30;;;;;;5056490;28;20376;-78
2022/03/30 09:18:09;;;;;;;19.73;7.73;;;9.90;78.20;;;;;;5055601;28;20362;-77
2022/03/30 09:20:40;;;;;;;18.97;8.77;;;10.00;78.00;;;;;;5073474;28;20058;-77
2022/03/30 09:23:08;;;;;;;20.13;8.00;;;10.10;77.80;;;;;;5073880;28;20028;-79
2022/03/30 09:25:34;;;;;;;15.13;6.70;;;10.10;77.10;;;;;;5073657;28;20039;-78
2022/03/30 09:28:02;;;;;;;17.07;7.17;;;10.20;76.40;;;;;;5055938;28;20380;-79
2022/03/30 09:30:29;;;;;;;18.47;7.87;;;10.30;76.10;;;;;;5055881;28;20031;-77
2022/03/30 09:32:57;;;;;;;16.10;8.10;;;10.40;75.90;;;;;;5073377;28;20437;-77
2022/03/30 09:35:38;;;;;;;19.83;8.87;;;10.40;75.60;;;;;;5073346;28;20063;-77
2022/03/30 09:38:16;;;;;;;21.33;9.10;;;10.60;75.50;;;;;;5073403;28;20021;-77
2022/03/30 09:40:44;;;;;;;17.20;8.00;;;10.70;75.40;;;;;;5072358;28;20021;-77
2022/03/30 09:43:11;;;;;;;17.10;8.30;;;10.90;75.40;;;;;;5073382;28;20031;-77
2022/03/30 09:45:37;;;;;;;14.80;8.43;;;10.90;75.40;;;;;;5075730;28;20099;-77
2022/03/30 09:48:17;;;;;;;19.15;8.00;;;11.00;75.40;;;;;;5075056;28;20115;-77
2022/03/30 09:50:50;;;;;;;22.85;7.00;;;11.10;75.20;;;;;;5075304;28;20021;-77
2022/03/30 09:53:18;;;;;;;16.10;7.30;;;11.20;74.70;;;;;;5075405;28;20024;-78
2022/03/30 09:55:57;;;;;;;13.20;6.82;;;11.30;74.10;;;;;;5093411;28;20039;-78
2022/03/30 09:58:25;;;;;;;15.20;7.43;;;11.50;73.70;;;;;;5093364;28;20527;-77
2022/03/30 10:01:09;;;;;;;14.77;7.10;;;11.50;72.90;;;;;;5075019;28;20028;-77
2022/03/30 10:03:42;;;;;;;15.27;6.93;;;11.70;73.00;;;;;;5075107;28;20493;-77
2022/03/30 10:06:09;;;;;;;14.25;7.28;;;11.70;72.60;;;;;;5093494;28;20024;-78
2022/03/30 10:08:35;;;;;;;12.02;6.32;;;11.90;72.20;;;;;;5074709;28;20020;-77
2022/03/30 10:11:01;;;;;;;11.80;6.38;;;12.00;71.80;;;;;;5092894;28;20130;-77
2022/03/30 10:13:27;;;;;;;12.38;6.28;;;12.30;71.10;;;;;;5092778;28;20059;-77
2022/03/30 10:15:53;;;;;;;12.20;5.53;;;12.60;70.90;;;;;;5092885;28;20453;-77
2022/03/30 10:18:20;;;;;;;11.50;6.32;;;12.90;70.70;;;;;;5074563;28;20028;-77
2022/03/30 10:20:49;;;;;;;9.90;5.00;;;13.30;70.60;;;;;;5092785;28;20027;-77
2022/03/30 10:23:37;;;;;;;10.38;4.78;;;13.80;70.50;;;;;;5092534;28;20472;-77
2022/03/30 10:26:10;;;;;;;12.50;4.50;;;14.40;69.30;;;;;;5074643;28;20376;-77
2022/03/30 10:28:39;;;;;;;7.40;3.55;;;15.10;68.20;;;;;;5092823;28;20017;-78
2022/03/30 10:31:05;;;;;;;6.68;3.13;;;15.80;67.20;;;;;;5074825;28;20036;-78
2022/03/30 10:33:42;;;;;;;8.48;3.92;;;16.30;65.90;;;;;;5058326;28;20380;-78
2022/03/30 10:36:32;;;;;;;11.88;6.53;;;16.90;64.40;;;;;;5092985;28;20020;-78
2022/03/30 10:39:09;;;;;;;9.25;4.90;;;17.70;62.20;;;;;;5074767;28;20012;-79
2022/03/30 10:42:03;;;;;;;8.70;4.40;;;18.30;60.50;;;;;;5074608;28;20361;-79
2022/03/30 10:44:35;;;;;;;6.65;3.22;;;18.90;58.60;;;;;;5089742;28;20032;-79
2022/03/30 10:47:27;;;;;;;6.03;2.70;;;19.40;58.50;;;;;;5074575;28;20473;-79
2022/03/30 10:49:54;;;;;;;7.38;3.45;;;20.00;56.10;;;;;;5071255;28;20054;-79
2022/03/30 10:52:36;;;;;;;5.60;2.80;;;20.60;55.90;;;;;;5094594;28;20032;-79
2022/03/30 10:55:29;;;;;;;5.05;2.17;;;21.00;53.30;;;;;;5078518;28;20074;-80
2022/03/30 10:58:03;;;;;;;7.68;2.80;;;20.90;50.70;;;;;;5093303;28;20454;-79
2022/03/30 11:00:38;;;;;;;6.00;3.05;;;20.70;49.20;;;;;;5096795;28;20042;-78
2022/03/30 11:03:25;;;;;;;6.25;2.72;;;20.70;49.00;;;;;;5096621;28;20028;-79
2022/03/30 11:06:05;;;;;;;4.93;2.70;;;21.00;48.50;;;;;;5096586;28;20099;-78
2022/03/30 11:08:34;;;;;;;7.45;3.65;;;21.00;47.50;;;;;;5078418;28;20028;-80
2022/03/30 11:11:04;;;;;;;5.95;2.95;;;21.20;46.60;;;;;;5096799;28;20032;-80
2022/03/30 11:13:30;;;;;;;6.00;2.85;;;21.50;46.50;;;;;;5096273;28;20472;-80
2022/03/30 11:16:04;;;;;;;6.15;2.80;;;21.90;46.20;;;;;;5076535;28;20029;-80
2022/03/30 11:18:31;;;;;;;4.57;2.38;;;22.30;45.30;;;;;;5058018;28;20028;-80
2022/03/30 11:21:08;;;;;;;7.32;3.17;;;22.50;44.80;;;;;;5081935;28;20434;-80
2022/03/30 11:23:36;;;;;;;10.85;4.00;;;22.30;43.70;;;;;;5076134;28;20119;-80
2022/03/30 11:26:02;;;;;;;10.73;4.38;;;22.00;42.60;;;;;;5076188;28;20025;-81
2022/03/30 11:28:38;;;;;;;8.00;3.72;;;21.50;41.70;;;;;;5058221;28;20449;-81
2022/03/30 11:31:22;;;;;;;9.65;4.07;;;20.90;41.90;;;;;;5058198;28;20397;-80
2022/03/30 11:34:18;;;;;;;9.10;4.38;;;20.40;41.90;;;;;;5057718;28;20044;-80
2022/03/30 11:36:44;;;;;;;10.52;4.65;;;20.00;42.60;;;;;;5075635;28;20159;-81
2022/03/30 11:39:12;;;;;;;8.98;3.92;;;19.80;42.70;;;;;;5057801;28;20548;-81
2022/03/30 11:41:38;;;;;;;10.50;4.15;;;20.00;43.00;;;;;;5075738;28;20109;-81
2022/03/30 11:46:51;;;;;;;6.18;3.63;;;20.10;42.50;;;;;;5075940;28;20103;-79
2022/03/30 11:49:17;;;;;;;8.05;3.72;;;20.00;42.30;;;;;;5075525;28;20020;-81
2022/03/30 11:51:43;;;;;;;12.98;4.53;;;19.70;42.30;;;;;;5075218;28;20044;-81
2022/03/30 11:54:10;;;;;;;10.25;4.18;;;19.30;42.40;;;;;;5040823;28;20020;-79
2022/03/30 11:56:36;;;;;;;9.48;3.85;;;19.00;43.00;;;;;;5041055;28;20033;-80
2022/03/30 11:59:01;;;;;;;5.72;2.80;;;18.80;43.50;;;;;;5057370;28;20039;-79
2022/03/30 12:01:27;;;;;;;6.22;3.00;;;19.00;43.90;;;;;;5057214;28;20097;-79
2022/03/30 12:03:55;;;;;;;8.13;2.83;;;19.30;44.10;;;;;;5056410;28;20115;-81
2022/03/30 12:06:21;;;;;;;5.93;2.97;;;19.50;43.90;;;;;;5075091;28;20107;-80
2022/03/30 12:08:48;;;;;;;5.72;2.65;;;19.60;43.80;;;;;;5075410;28;20516;-80
2022/03/30 12:11:15;;;;;;;4.30;2.30;;;19.60;43.70;;;;;;5057507;28;20473;-80
2022/03/30 12:13:41;;;;;;;4.85;2.20;;;19.70;43.80;;;;;;5057163;28;20082;-79
2022/03/30 12:16:13;;;;;;;7.03;2.58;;;19.70;43.60;;;;;;5040598;28;20393;-81
2022/03/30 12:18:47;;;;;;;5.90;2.60;;;19.80;43.40;;;;;;5057125;28;20017;-81
2022/03/30 12:21:20;;;;;;;4.25;2.55;;;20.00;43.40;;;;;;5074842;28;20028;-81
2022/03/30 12:24:00;;;;;;;5.05;2.17;;;20.00;43.30;;;;;;5059890;28;20070;-81
2022/03/30 12:26:26;;;;;;;4.00;2.42;;;20.20;43.30;;;;;;5040682;28;20023;-82
2022/03/30 12:29:05;;;;;;;5.57;2.13;;;20.30;44.00;;;;;;5056892;28;20099;-80
2022/03/30 12:31:37;;;;;;;4.88;2.78;;;20.50;43.10;;;;;;5056675;28;20052;-81
2022/03/30 12:34:11;;;;;;;4.32;2.33;;;20.70;43.00;;;;;;5056436;28;20107;-81
2022/03/30 12:36:41;;;;;;;5.25;2.17;;;20.80;43.40;;;;;;5074042;28;20103;-81
2022/03/30 12:39:20;;;;;;;5.53;2.35;;;21.00;42.70;;;;;;5039528;28;20040;-80
2022/03/30 12:41:55;;;;;;;5.47;2.47;;;21.10;43.00;;;;;;5056015;28;20013;-79
2022/03/30 12:44:21;;;;;;;7.03;2.10;;;21.20;42.20;;;;;;5063162;28;20020;-80
2022/03/30 12:46:46;;;;;;;5.70;2.50;;;21.30;42.10;;;;;;5041636;28;20091;-81
2022/03/30 12:49:12;;;;;;;14.50;3.22;;;21.20;41.80;;;;;;5039327;28;20052;-80
2022/03/30 12:51:39;;;;;;;6.70;2.53;;;21.10;41.90;;;;;;5056380;28;20503;-81